Time;durP1;ratioP1;P1;durP2;ratioP2;P2;SDS_P1;SDS_P2;PMS_P1;PMS_P2;Temp;Humidity;BMP_temperature;BMP_pressure;BME280_temperature;BME280_humidity;BME280_pressure;Samples;Min_cycle;Max_cycle;Signal;HPM_P1;HPM_P2
2022/12/03 00:00:41;;;;;;;30.10;12.37;;;8.90;88.70;;;;;;6215193;23;20624;-79
2022/12/03 00:03:11;;;;;;;30.80;12.00;;;8.90;88.70;;;;;;6212210;23;20454;-79
2022/12/03 00:05:39;;;;;;;36.30;12.57;;;8.90;88.70;;;;;;6214205;23;20175;-79
2022/12/03 00:08:16;;;;;;;37.20;14.07;;;8.90;88.60;;;;;;6214672;23;20262;-79
2022/12/03 00:10:44;;;;;;;34.30;13.17;;;8.90;88.60;;;;;;6214567;23;20177;-79
2022/12/03 00:13:12;;;;;;;30.83;12.17;;;8.90;88.80;;;;;;6211855;23;20694;-79
2022/12/03 00:15:40;;;;;;;42.70;13.47;;;8.90;88.70;;;;;;6213243;23;20191;-79
2022/12/03 00:18:10;;;;;;;34.67;12.17;;;8.90;88.60;;;;;;6214782;23;20195;-79
2022/12/03 00:20:39;;;;;;;35.53;13.17;;;8.90;88.60;;;;;;6214143;23;20493;-80
2022/12/03 00:23:07;;;;;;;32.17;12.53;;;8.90;88.60;;;;;;6211009;23;20664;-79
2022/12/03 00:25:35;;;;;;;39.43;13.47;;;8.90;88.60;;;;;;6212258;23;20199;-79
2022/12/03 00:28:04;;;;;;;33.23;12.23;;;8.90;88.60;;;;;;6215205;23;20175;-79
2022/12/03 00:30:32;;;;;;;35.10;12.53;;;8.90;88.60;;;;;;6214210;23;20175;-79
2022/12/03 00:33:00;;;;;;;36.20;12.33;;;8.90;88.60;;;;;;6213581;23;20233;-80
2022/12/03 00:35:30;;;;;;;32.40;12.63;;;8.90;88.60;;;;;;6214871;23;20230;-80
2022/12/03 00:37:58;;;;;;;32.70;12.10;;;8.90;88.50;;;;;;6214193;23;20550;-79
2022/12/03 00:40:27;;;;;;;33.20;13.00;;;9.00;88.60;;;;;;6215441;23;20640;-80
2022/12/03 00:42:55;;;;;;;29.50;11.50;;;9.00;88.60;;;;;;6214982;23;20183;-80
2022/12/03 00:45:23;;;;;;;31.10;13.53;;;9.00;88.50;;;;;;6211034;23;20179;-79
2022/12/03 00:47:51;;;;;;;32.10;13.50;;;8.90;88.40;;;;;;6213877;23;20175;-80
2022/12/03 00:50:20;;;;;;;30.13;11.93;;;8.90;88.50;;;;;;6214795;23;20201;-80
2022/12/03 00:52:49;;;;;;;33.43;11.70;;;8.90;88.50;;;;;;6211648;23;20182;-79
2022/12/03 00:55:18;;;;;;;33.13;12.60;;;8.90;88.50;;;;;;6211660;23;20382;-79
2022/12/03 00:57:46;;;;;;;34.23;12.43;;;8.90;88.80;;;;;;6211573;23;20633;-79
2022/12/03 01:00:15;;;;;;;32.77;12.53;;;8.90;88.60;;;;;;6213265;23;20175;-80
2022/12/03 01:02:43;;;;;;;28.03;12.40;;;8.90;88.60;;;;;;6214160;23;20226;-79
2022/12/03 01:05:12;;;;;;;33.50;12.83;;;8.90;88.50;;;;;;6214868;23;20248;-79
2022/12/03 01:07:40;;;;;;;32.90;11.73;;;8.90;88.60;;;;;;6212794;23;20221;-79
2022/12/03 01:10:11;;;;;;;30.83;11.97;;;8.90;88.50;;;;;;6213296;23;20246;-79
2022/12/03 01:12:39;;;;;;;28.90;11.73;;;8.80;88.50;;;;;;6213485;23;20229;-79
2022/12/03 01:15:10;;;;;;;22.40;10.70;;;8.80;88.50;;;;;;6212494;23;20191;-82
2022/12/03 01:17:38;;;;;;;29.53;11.63;;;8.80;88.40;;;;;;6213818;23;20643;-80
2022/12/03 01:20:09;;;;;;;30.30;11.37;;;8.80;88.40;;;;;;6214114;23;20481;-80
2022/12/03 01:22:37;;;;;;;31.20;11.60;;;8.80;88.30;;;;;;6212788;23;20160;-79
2022/12/03 01:25:06;;;;;;;22.63;10.53;;;8.80;88.40;;;;;;6212358;23;20195;-79
2022/12/03 01:27:36;;;;;;;29.53;10.93;;;8.80;88.40;;;;;;6211594;23;20211;-79
2022/12/03 01:30:06;;;;;;;25.00;11.17;;;8.90;88.40;;;;;;6213793;23;20175;-79
2022/12/03 01:32:33;;;;;;;24.03;10.60;;;8.80;88.20;;;;;;6212297;23;20178;-79
2022/12/03 01:35:01;;;;;;;29.67;10.80;;;8.90;87.70;;;;;;6215037;23;20191;-79
2022/12/03 01:37:30;;;;;;;28.17;11.07;;;8.90;87.60;;;;;;6212599;23;20265;-79
2022/12/03 01:39:58;;;;;;;26.47;10.40;;;8.80;87.60;;;;;;6213674;23;20159;-78
2022/12/03 01:42:28;;;;;;;30.03;10.90;;;8.90;87.70;;;;;;6214063;23;20175;-80
2022/12/03 01:45:00;;;;;;;23.70;9.67;;;8.90;87.70;;;;;;6213420;23;20163;-80
2022/12/03 01:47:31;;;;;;;22.33;9.77;;;8.90;87.60;;;;;;6212941;23;20160;-80
2022/12/03 01:50:03;;;;;;;25.70;10.23;;;8.90;87.60;;;;;;6211305;23;20167;-79
2022/12/03 01:52:35;;;;;;;28.37;11.80;;;8.90;87.40;;;;;;6211193;23;20278;-79
2022/12/03 01:55:07;;;;;;;24.27;10.40;;;8.90;87.30;;;;;;6214295;23;20624;-79
2022/12/03 01:57:40;;;;;;;21.57;10.40;;;8.90;87.30;;;;;;6211946;23;20167;-79
2022/12/03 02:00:15;;;;;;;24.90;10.77;;;8.90;87.20;;;;;;6210546;23;20462;-79
2022/12/03 02:02:43;;;;;;;23.13;10.17;;;8.90;87.00;;;;;;6212113;23;20159;-80
2022/12/03 02:05:18;;;;;;;26.13;10.37;;;8.90;86.90;;;;;;6215009;23;20171;-79
2022/12/03 02:07:46;;;;;;;24.93;10.33;;;8.90;86.80;;;;;;6212607;23;20158;-79
2022/12/03 02:10:17;;;;;;;22.97;9.83;;;8.90;86.80;;;;;;6212142;23;20680;-79
2022/12/03 02:12:48;;;;;;;21.73;10.07;;;8.90;86.70;;;;;;6213723;23;20159;-79
2022/12/03 02:15:18;;;;;;;21.50;9.27;;;8.90;86.80;;;;;;6211976;23;20585;-78
2022/12/03 02:17:47;;;;;;;21.67;9.63;;;8.90;86.80;;;;;;6211137;23;20225;-80
2022/12/03 02:20:15;;;;;;;27.13;10.53;;;8.90;86.80;;;;;;6211863;23;20226;-79
2022/12/03 02:22:53;;;;;;;24.60;10.57;;;8.90;86.90;;;;;;6213933;23;20628;-79
2022/12/03 02:25:24;;;;;;;31.40;10.77;;;8.90;86.70;;;;;;6213382;23;20199;-78
2022/12/03 02:27:55;;;;;;;22.60;10.27;;;8.90;86.60;;;;;;6213177;23;20495;-79
2022/12/03 02:30:24;;;;;;;22.60;10.03;;;8.90;86.60;;;;;;6212252;23;20258;-79
2022/12/03 02:32:54;;;;;;;24.43;10.47;;;8.90;86.60;;;;;;6213618;23;20230;-79
2022/12/03 02:35:24;;;;;;;23.97;10.47;;;8.90;86.40;;;;;;6214372;23;20609;-78
2022/12/03 02:37:54;;;;;;;23.60;10.10;;;8.90;86.30;;;;;;6214027;23;20155;-79
2022/12/03 02:40:28;;;;;;;23.43;10.90;;;8.90;86.30;;;;;;6214684;23;20259;-79
2022/12/03 02:43:01;;;;;;;24.17;9.63;;;8.90;86.10;;;;;;6213739;23;20200;-80
2022/12/03 02:45:34;;;;;;;25.27;11.37;;;8.90;86.10;;;;;;6211802;23;20531;-79
2022/12/03 02:48:06;;;;;;;29.03;10.60;;;8.90;86.10;;;;;;6215886;23;20159;-79
2022/12/03 02:50:37;;;;;;;22.03;10.23;;;8.90;86.10;;;;;;6215874;23;20588;-79
2022/12/03 02:53:08;;;;;;;22.10;10.33;;;8.90;86.90;;;;;;6213543;23;20215;-79
2022/12/03 02:55:38;;;;;;;24.53;11.00;;;8.90;86.10;;;;;;6215890;23;20175;-79
2022/12/03 02:58:06;;;;;;;21.27;10.23;;;8.90;86.30;;;;;;6216127;23;20182;-79
2022/12/03 03:00:36;;;;;;;27.93;11.00;;;8.90;86.20;;;;;;6213209;23;20226;-79
2022/12/03 03:03:06;;;;;;;20.30;10.23;;;8.90;86.10;;;;;;6214444;23;20175;-79
2022/12/03 03:05:37;;;;;;;21.27;10.87;;;8.90;86.10;;;;;;6214830;23;20155;-79
2022/12/03 03:08:08;;;;;;;25.87;10.67;;;8.90;86.00;;;;;;6216238;23;20159;-80
2022/12/03 03:10:39;;;;;;;22.43;9.97;;;8.80;86.00;;;;;;6215648;23;20162;-79
2022/12/03 03:13:13;;;;;;;20.37;9.87;;;8.80;86.00;;;;;;6215488;23;20494;-80
2022/12/03 03:15:43;;;;;;;23.10;11.23;;;8.90;86.10;;;;;;6210202;23;20185;-79
2022/12/03 03:18:13;;;;;;;25.27;11.63;;;8.80;86.00;;;;;;6215119;23;20183;-79
2022/12/03 03:20:42;;;;;;;26.90;11.23;;;8.80;86.00;;;;;;6214666;23;20631;-80
2022/12/03 03:23:16;;;;;;;22.03;10.33;;;8.80;86.10;;;;;;6214128;23;20229;-79
2022/12/03 03:25:48;;;;;;;19.87;10.13;;;8.80;86.00;;;;;;6212174;23;20589;-79
2022/12/03 03:28:17;;;;;;;27.80;11.87;;;8.80;86.00;;;;;;6215043;23;20160;-78
2022/12/03 03:30:47;;;;;;;24.87;11.50;;;8.80;86.00;;;;;;6214068;23;20197;-78
2022/12/03 03:33:16;;;;;;;24.90;11.43;;;8.70;86.00;;;;;;6215661;23;20182;-80
2022/12/03 03:35:47;;;;;;;23.80;12.00;;;8.70;86.00;;;;;;6214107;23;20557;-80
2022/12/03 03:38:17;;;;;;;24.40;11.83;;;8.70;86.00;;;;;;6215155;23;20237;-80
2022/12/03 03:40:48;;;;;;;29.43;12.30;;;8.70;86.10;;;;;;6215368;23;20234;-80
2022/12/03 03:43:17;;;;;;;24.20;10.87;;;8.70;86.20;;;;;;6211280;23;20621;-78
2022/12/03 03:45:45;;;;;;;25.80;10.33;;;8.70;86.30;;;;;;6212788;23;20168;-80
2022/12/03 03:48:14;;;;;;;27.90;11.37;;;8.70;86.40;;;;;;6212328;23;20175;-79
2022/12/03 03:50:44;;;;;;;22.87;10.77;;;8.60;86.50;;;;;;6215797;23;20171;-79
2022/12/03 03:53:13;;;;;;;24.20;10.97;;;8.70;86.60;;;;;;6214741;23;20175;-80
2022/12/03 03:55:42;;;;;;;29.40;11.70;;;8.70;86.70;;;;;;6212870;23;20202;-80
2022/12/03 03:58:12;;;;;;;21.50;10.93;;;8.70;86.70;;;;;;6213025;23;20225;-79
2022/12/03 04:00:43;;;;;;;23.03;10.10;;;8.70;86.80;;;;;;6212342;23;20179;-80
2022/12/03 04:03:11;;;;;;;26.73;10.53;;;8.70;86.90;;;;;;6215278;23;20162;-79
2022/12/03 04:05:40;;;;;;;29.97;11.93;;;8.60;86.90;;;;;;6213821;23;20248;-79
2022/12/03 04:08:08;;;;;;;26.93;10.30;;;8.60;86.90;;;;;;6215210;23;20182;-79
2022/12/03 04:13:24;;;;;;;31.17;11.20;;;8.60;86.90;;;;;;6214101;23;20162;-78
2022/12/03 04:15:52;;;;;;;23.63;11.30;;;8.60;86.70;;;;;;6215700;23;20179;-79
2022/12/03 04:23:51;;;;;;;27.77;12.43;;;8.50;87.00;;;;;;6214015;23;20193;-78
2022/12/03 04:29:16;;;;;;;24.83;11.17;;;8.50;87.20;;;;;;6213500;23;20552;-78
2022/12/03 04:37:16;;;;;;;29.27;11.47;;;8.60;87.40;;;;;;6216014;23;20356;-78
2022/12/03 04:39:45;;;;;;;28.10;11.03;;;8.60;87.40;;;;;;6214161;23;20159;-78
2022/12/03 04:42:13;;;;;;;26.10;12.23;;;8.60;87.50;;;;;;6214650;23;20175;-78
2022/12/03 04:44:43;;;;;;;26.50;12.80;;;8.60;87.50;;;;;;6214623;23;20163;-79
2022/12/03 04:47:13;;;;;;;26.07;12.10;;;8.60;87.50;;;;;;6212988;23;20179;-79
2022/12/03 04:49:43;;;;;;;25.90;12.07;;;8.60;87.50;;;;;;6215088;23;20266;-79
2022/12/03 04:52:13;;;;;;;33.10;13.63;;;8.60;88.20;;;;;;6213409;23;20175;-80
2022/12/03 04:54:42;;;;;;;29.83;12.73;;;8.60;87.50;;;;;;6211718;23;20636;-79
2022/12/03 04:57:11;;;;;;;33.57;13.07;;;8.70;87.50;;;;;;6214049;23;20195;-79
2022/12/03 04:59:40;;;;;;;27.43;12.07;;;8.60;87.60;;;;;;6213648;23;20539;-78
2022/12/03 05:02:10;;;;;;;25.80;11.67;;;8.70;88.00;;;;;;6213964;23;20175;-78
2022/12/03 05:04:38;;;;;;;31.05;14.25;;;8.70;87.50;;;;;;6211944;23;20388;-80
2022/12/03 05:07:06;;;;;;;32.77;12.97;;;8.70;87.70;;;;;;6213927;23;20178;-80
2022/12/03 05:09:35;;;;;;;27.17;12.67;;;8.70;87.70;;;;;;6212341;23;20245;-79
2022/12/03 05:12:03;;;;;;;29.13;12.60;;;8.70;87.60;;;;;;6214745;23;20186;-79
2022/12/03 05:14:31;;;;;;;27.50;11.03;;;8.70;87.50;;;;;;6212270;23;20632;-79
2022/12/03 05:17:00;;;;;;;26.73;12.27;;;8.70;87.40;;;;;;6212055;23;20223;-79
2022/12/03 05:22:12;;;;;;;24.17;10.70;;;8.70;87.30;;;;;;6210778;23;20171;-79
2022/12/03 05:24:40;;;;;;;28.43;12.57;;;8.70;87.30;;;;;;6213343;23;20186;-79
2022/12/03 05:27:08;;;;;;;32.40;12.87;;;8.70;87.20;;;;;;6214240;23;20213;-79
2022/12/03 05:29:36;;;;;;;29.63;12.80;;;8.70;87.30;;;;;;6213966;23;20182;-79
2022/12/03 05:32:05;;;;;;;26.93;11.30;;;8.70;87.30;;;;;;6211623;23;20565;-79
2022/12/03 05:34:35;;;;;;;28.30;12.70;;;8.70;87.20;;;;;;6211700;23;20183;-79
2022/12/03 05:37:03;;;;;;;25.07;11.57;;;8.70;87.30;;;;;;6211862;23;20574;-79
2022/12/03 05:39:31;;;;;;;31.20;12.20;;;8.70;87.30;;;;;;6214113;23;20552;-79
2022/12/03 05:44:46;;;;;;;30.73;12.97;;;8.80;87.30;;;;;;6210256;23;20592;-79
2022/12/03 05:47:14;;;;;;;32.47;12.33;;;8.80;87.30;;;;;;6211032;23;20294;-79
2022/12/03 05:49:43;;;;;;;36.47;13.67;;;8.80;87.30;;;;;;6213935;23;20175;-78
2022/12/03 05:52:12;;;;;;;27.03;12.50;;;8.80;87.30;;;;;;6214061;23;20203;-79
2022/12/03 05:54:40;;;;;;;27.57;13.53;;;8.90;87.30;;;;;;6212660;23;20175;-79
2022/12/03 05:57:08;;;;;;;27.43;12.10;;;8.90;87.30;;;;;;6212677;23;20233;-79
2022/12/03 05:59:37;;;;;;;31.93;13.73;;;8.90;87.20;;;;;;6212801;23;20635;-79
2022/12/03 06:02:05;;;;;;;30.17;12.37;;;8.90;87.20;;;;;;6213659;23;20184;-80
2022/12/03 06:04:33;;;;;;;34.30;13.73;;;8.90;87.10;;;;;;6213968;23;20175;-80
2022/12/03 06:07:03;;;;;;;31.73;12.63;;;9.00;87.00;;;;;;6213976;23;20473;-80
2022/12/03 06:09:34;;;;;;;29.77;13.33;;;9.00;87.00;;;;;;6211702;23;20217;-80
2022/12/03 06:12:03;;;;;;;34.17;12.30;;;9.00;86.90;;;;;;6211834;23;20171;-79
2022/12/03 06:14:33;;;;;;;25.33;11.57;;;9.00;86.90;;;;;;6212287;23;20702;-80
2022/12/03 06:17:01;;;;;;;30.40;11.90;;;9.00;87.00;;;;;;6211690;23;20644;-80
2022/12/03 06:19:30;;;;;;;27.60;13.17;;;9.00;86.90;;;;;;6213164;23;20178;-80
2022/12/03 06:21:58;;;;;;;35.57;17.47;;;9.00;86.60;;;;;;6212177;23;20174;-80
2022/12/03 06:24:28;;;;;;;41.73;20.70;;;9.00;86.50;;;;;;6216223;23;20175;-80
2022/12/03 06:26:56;;;;;;;35.63;17.87;;;9.00;86.40;;;;;;6215318;23;20229;-80
2022/12/03 06:29:24;;;;;;;33.90;15.40;;;9.00;86.50;;;;;;6215057;23;20232;-81
2022/12/03 06:31:53;;;;;;;25.20;12.30;;;9.00;86.40;;;;;;6215421;23;20705;-80
2022/12/03 06:34:21;;;;;;;24.20;12.03;;;9.00;86.30;;;;;;6217226;23;20171;-80
2022/12/03 06:36:49;;;;;;;28.10;14.37;;;9.10;87.20;;;;;;6215189;23;20178;-80
2022/12/03 06:39:18;;;;;;;31.73;13.67;;;9.10;86.20;;;;;;6216751;23;20171;-78
2022/12/03 06:41:48;;;;;;;24.00;13.10;;;9.10;86.30;;;;;;6215101;23;20707;-78
2022/12/03 06:44:16;;;;;;;29.20;12.57;;;9.10;86.30;;;;;;6214790;23;20175;-79
2022/12/03 06:46:45;;;;;;;28.87;13.47;;;9.10;86.30;;;;;;6214737;23;20201;-79
2022/12/03 06:49:13;;;;;;;22.00;12.50;;;9.10;86.20;;;;;;6215544;23;20238;-80
2022/12/03 06:51:41;;;;;;;26.50;12.63;;;9.10;86.20;;;;;;6214491;23;20209;-78
2022/12/03 06:54:10;;;;;;;24.90;11.70;;;9.10;85.90;;;;;;6216250;23;20206;-78
2022/12/03 06:56:38;;;;;;;27.40;12.47;;;9.10;85.60;;;;;;6216453;23;20175;-78
2022/12/03 06:59:17;;;;;;;23.43;12.10;;;9.10;85.70;;;;;;6214854;23;20209;-79
2022/12/03 07:01:45;;;;;;;25.63;11.33;;;9.10;85.80;;;;;;6215607;23;20164;-79
2022/12/03 07:04:14;;;;;;;31.37;12.80;;;9.10;85.70;;;;;;6214572;23;20254;-79
2022/12/03 07:06:42;;;;;;;25.73;12.60;;;9.10;85.80;;;;;;6214117;23;20624;-79
2022/12/03 07:09:10;;;;;;;31.70;11.73;;;9.10;85.80;;;;;;6215855;23;20171;-81
2022/12/03 07:11:42;;;;;;;27.43;12.33;;;9.10;85.90;;;;;;6215103;23;20214;-80
2022/12/03 07:14:11;;;;;;;26.47;12.20;;;9.10;85.90;;;;;;6214533;23;20152;-79
2022/12/03 07:16:42;;;;;;;28.57;13.63;;;9.10;85.70;;;;;;6214395;23;20632;-80
2022/12/03 07:19:13;;;;;;;25.17;12.90;;;9.10;85.80;;;;;;6215750;23;20254;-81
2022/12/03 07:21:42;;;;;;;32.10;12.30;;;9.10;85.90;;;;;;6215900;23;20186;-79
2022/12/03 07:24:11;;;;;;;24.80;12.93;;;9.10;85.90;;;;;;6216067;23;20179;-80
2022/12/03 07:26:39;;;;;;;25.80;12.20;;;9.10;85.90;;;;;;6216137;23;20206;-79
2022/12/03 07:29:07;;;;;;;25.83;12.93;;;9.10;86.00;;;;;;6216481;23;20547;-81
2022/12/03 07:31:35;;;;;;;35.77;13.40;;;9.10;85.80;;;;;;6214748;23;20175;-81
2022/12/03 07:34:06;;;;;;;29.47;13.00;;;9.10;85.80;;;;;;6214874;23;20175;-77
2022/12/03 07:36:34;;;;;;;26.93;12.73;;;9.10;85.90;;;;;;6214081;23;20159;-78
2022/12/03 07:39:03;;;;;;;27.97;13.23;;;9.10;85.80;;;;;;6216704;23;20191;-77
2022/12/03 07:41:31;;;;;;;29.70;14.10;;;9.10;85.80;;;;;;6216779;23;20210;-77
2022/12/03 07:43:59;;;;;;;28.43;12.10;;;9.10;85.70;;;;;;6215455;23;20229;-78
2022/12/03 07:46:28;;;;;;;24.70;11.93;;;9.10;85.80;;;;;;6215352;23;20175;-78
2022/12/03 07:48:56;;;;;;;27.83;12.20;;;9.20;85.90;;;;;;6215595;23;20214;-77
2022/12/03 07:51:26;;;;;;;27.47;12.77;;;9.20;85.90;;;;;;6215657;23;20179;-77
2022/12/03 07:53:59;;;;;;;30.60;13.53;;;9.20;85.80;;;;;;6215647;23;20191;-77
2022/12/03 07:56:27;;;;;;;24.83;12.23;;;9.20;85.70;;;;;;6215791;23;20175;-78
2022/12/03 07:58:56;;;;;;;28.40;12.73;;;9.20;85.80;;;;;;6216485;23;20514;-80
2022/12/03 08:01:24;;;;;;;26.13;12.97;;;9.20;85.80;;;;;;6212966;23;20182;-80
2022/12/03 08:03:53;;;;;;;25.23;11.93;;;9.20;85.70;;;;;;6213677;23;20171;-79
2022/12/03 08:06:21;;;;;;;25.20;12.03;;;9.20;85.50;;;;;;6213724;23;20175;-80
2022/12/03 08:08:51;;;;;;;28.13;13.13;;;9.20;85.50;;;;;;6215323;23;20175;-79
2022/12/03 08:11:19;;;;;;;26.00;11.77;;;9.20;85.50;;;;;;6215602;23;20178;-77
2022/12/03 08:13:48;;;;;;;31.17;12.50;;;9.20;85.50;;;;;;6216349;23;20178;-78
2022/12/03 08:16:20;;;;;;;28.43;13.00;;;9.30;85.60;;;;;;6214010;23;20159;-77
2022/12/03 08:18:50;;;;;;;31.00;14.77;;;9.30;85.60;;;;;;6215573;23;20179;-77
2022/12/03 08:21:20;;;;;;;27.63;12.43;;;9.30;85.60;;;;;;6213585;23;20175;-77
2022/12/03 08:23:50;;;;;;;30.90;12.77;;;9.30;85.30;;;;;;6214903;23;20585;-78
2022/12/03 08:26:23;;;;;;;29.77;11.43;;;9.30;85.50;;;;;;6214625;23;20260;-77
2022/12/03 08:28:51;;;;;;;20.07;11.60;;;9.30;85.60;;;;;;6214943;23;20155;-78
2022/12/03 08:31:22;;;;;;;26.17;11.83;;;9.40;85.70;;;;;;6212382;23;20171;-77
2022/12/03 08:34:12;;;;;;;28.97;12.30;;;9.40;85.40;;;;;;6214457;23;20171;-78
2022/12/03 08:36:40;;;;;;;27.30;12.03;;;9.40;85.40;;;;;;6213343;23;20160;-77
2022/12/03 08:39:22;;;;;;;29.73;13.50;;;9.40;85.30;;;;;;6214337;23;20223;-78
2022/12/03 08:44:41;;;;;;;28.80;13.07;;;9.50;84.90;;;;;;6210468;23;20221;-80
2022/12/03 08:47:18;;;;;;;30.27;13.00;;;9.50;85.00;;;;;;6214177;23;20175;-78
2022/12/03 08:49:53;;;;;;;26.33;12.43;;;9.50;85.10;;;;;;6212581;23;20257;-77
2022/12/03 08:52:22;;;;;;;31.47;13.13;;;9.50;85.00;;;;;;6211354;23;20162;-75
2022/12/03 08:54:54;;;;;;;25.43;12.77;;;9.50;85.00;;;;;;6215009;23;20225;-77
2022/12/03 08:57:27;;;;;;;32.73;12.63;;;9.50;85.00;;;;;;6212398;23;20226;-77
2022/12/03 09:00:00;;;;;;;31.33;13.63;;;9.50;85.00;;;;;;6211253;23;20175;-77
2022/12/03 09:02:32;;;;;;;27.03;12.23;;;9.50;85.20;;;;;;6210014;23;20155;-78
2022/12/03 09:05:14;;;;;;;33.50;14.20;;;9.60;85.30;;;;;;6211438;23;20175;-76
2022/12/03 09:07:42;;;;;;;26.20;12.80;;;9.60;85.30;;;;;;6213007;23;20493;-76
2022/12/03 09:10:12;;;;;;;35.07;13.87;;;9.60;85.30;;;;;;6210830;23;20171;-76
2022/12/03 09:12:40;;;;;;;29.90;12.60;;;9.60;85.30;;;;;;6213675;23;20233;-76
2022/12/03 09:15:09;;;;;;;31.10;14.87;;;9.70;85.30;;;;;;6211456;23;20175;-76
2022/12/03 09:17:38;;;;;;;31.37;14.97;;;9.70;85.30;;;;;;6214084;23;20176;-75
2022/12/03 09:20:07;;;;;;;32.13;15.43;;;9.70;85.20;;;;;;6213114;23;20249;-77
2022/12/03 09:22:36;;;;;;;35.50;14.63;;;9.70;85.20;;;;;;6211911;23;20636;-75
2022/12/03 09:25:05;;;;;;;28.33;14.53;;;9.70;85.20;;;;;;6209865;23;20175;-76
2022/12/03 09:27:35;;;;;;;28.50;14.27;;;9.70;86.10;;;;;;6212346;23;20163;-75
2022/12/03 09:30:04;;;;;;;27.70;13.47;;;9.80;85.30;;;;;;6212868;23;20171;-74
2022/12/03 09:32:32;;;;;;;28.50;13.23;;;9.80;85.20;;;;;;6214480;23;20182;-74
2022/12/03 09:35:01;;;;;;;31.63;13.07;;;9.80;85.00;;;;;;6211840;23;20563;-75
2022/12/03 09:37:29;;;;;;;33.83;14.20;;;9.80;85.00;;;;;;6213774;23;20229;-75
2022/12/03 09:39:57;;;;;;;31.93;14.30;;;9.80;85.10;;;;;;6211350;23;20195;-75
2022/12/03 09:42:26;;;;;;;31.87;14.30;;;9.80;84.90;;;;;;6214517;23;20229;-75
2022/12/03 09:44:56;;;;;;;29.97;13.03;;;9.80;84.90;;;;;;6160015;23;20175;-74
2022/12/03 09:47:24;;;;;;;34.57;13.47;;;9.80;84.90;;;;;;6211914;23;20202;-75
2022/12/03 09:49:53;;;;;;;32.67;15.10;;;9.80;85.00;;;;;;6210826;23;20628;-78
2022/12/03 09:52:26;;;;;;;34.23;15.17;;;9.80;84.90;;;;;;6212994;23;20198;-76
2022/12/03 09:54:54;;;;;;;34.80;15.30;;;9.80;85.00;;;;;;6213940;23;20238;-75
2022/12/03 09:57:23;;;;;;;31.27;14.30;;;9.90;85.00;;;;;;6213539;23;20175;-76
2022/12/03 09:59:51;;;;;;;32.30;14.03;;;9.90;85.00;;;;;;6211779;23;20190;-75
2022/12/03 10:02:25;;;;;;;39.03;15.23;;;9.90;84.70;;;;;;6212944;23;20179;-75
2022/12/03 10:04:54;;;;;;;31.70;13.93;;;9.90;85.60;;;;;;6212100;23;20182;-76
2022/12/03 10:07:23;;;;;;;30.17;14.07;;;9.90;84.90;;;;;;6213682;23;20182;-75
2022/12/03 10:09:51;;;;;;;30.77;13.83;;;9.90;84.90;;;;;;6211812;23;20171;-75
2022/12/03 10:12:25;;;;;;;31.23;14.33;;;10.00;85.00;;;;;;6211823;23;20197;-75
2022/12/03 10:14:54;;;;;;;34.37;14.67;;;10.00;85.00;;;;;;6211123;23;20217;-75
2022/12/03 10:17:24;;;;;;;37.37;14.87;;;10.00;84.80;;;;;;6211822;23;20662;-75
2022/12/03 10:19:52;;;;;;;32.30;14.73;;;10.00;84.80;;;;;;6209691;23;20672;-79
2022/12/03 10:22:20;;;;;;;31.20;14.50;;;10.00;84.80;;;;;;6209183;23;20325;-78
2022/12/03 10:25:05;;;;;;;37.63;16.80;;;10.00;84.80;;;;;;6214001;23;20194;-75
2022/12/03 10:27:34;;;;;;;34.43;16.20;;;9.90;85.30;;;;;;6210106;23;20178;-76
2022/12/03 10:30:05;;;;;;;37.43;16.97;;;9.90;85.20;;;;;;6210300;23;20175;-75
2022/12/03 10:32:42;;;;;;;35.43;14.77;;;9.90;85.20;;;;;;6210160;23;20218;-75
2022/12/03 10:35:12;;;;;;;33.33;15.90;;;9.90;85.00;;;;;;6210101;23;20782;-75
2022/12/03 10:38:00;;;;;;;40.03;15.83;;;9.90;85.20;;;;;;6211774;23;20528;-75
2022/12/03 10:40:30;;;;;;;38.27;16.93;;;9.90;85.20;;;;;;6214015;23;20179;-75
2022/12/03 10:43:16;;;;;;;37.13;15.70;;;9.90;85.20;;;;;;6211124;23;20175;-76
2022/12/03 10:45:45;;;;;;;34.40;14.37;;;9.90;85.10;;;;;;6209883;23;20160;-77
2022/12/03 10:48:18;;;;;;;42.37;16.73;;;9.90;85.00;;;;;;6212926;23;20171;-74
2022/12/03 10:50:51;;;;;;;29.87;15.27;;;9.90;85.00;;;;;;6212265;23;20179;-75
2022/12/03 10:53:21;;;;;;;35.93;16.73;;;9.90;85.10;;;;;;6209784;23;20605;-76
2022/12/03 10:55:57;;;;;;;36.00;16.00;;;9.80;85.60;;;;;;6211966;23;20170;-77
2022/12/03 10:58:27;;;;;;;34.00;15.53;;;9.80;85.90;;;;;;6212573;23;20162;-74
2022/12/03 11:00:57;;;;;;;32.23;15.30;;;9.80;85.70;;;;;;6213990;23;20249;-74
2022/12/03 11:03:30;;;;;;;37.50;17.37;;;9.80;85.60;;;;;;6211305;23;20178;-76
2022/12/03 11:06:01;;;;;;;39.37;15.97;;;9.80;85.60;;;;;;6209624;23;20608;-76
2022/12/03 11:08:32;;;;;;;33.80;16.43;;;9.80;85.70;;;;;;6214027;23;20194;-77
2022/12/03 11:11:02;;;;;;;31.23;14.90;;;9.80;85.90;;;;;;6214237;23;20213;-77
2022/12/03 11:13:45;;;;;;;34.73;16.00;;;9.90;85.90;;;;;;6213800;23;20163;-76
2022/12/03 11:16:34;;;;;;;33.80;15.13;;;9.90;85.80;;;;;;6216261;23;20163;-76
2022/12/03 11:19:04;;;;;;;32.97;15.47;;;9.90;85.90;;;;;;6216222;23;20621;-77
2022/12/03 11:21:55;;;;;;;30.33;14.70;;;9.90;85.80;;;;;;6216025;23;20214;-76
2022/12/03 11:24:24;;;;;;;29.63;14.60;;;9.90;86.10;;;;;;6215439;23;20205;-76
2022/12/03 11:27:25;;;;;;;39.47;15.20;;;9.80;85.70;;;;;;6214818;23;20199;-76
2022/12/03 11:30:01;;;;;;;38.13;15.27;;;9.80;85.80;;;;;;6215786;23;20155;-78
2022/12/03 11:33:06;;;;;;;34.53;15.20;;;9.80;85.80;;;;;;6215066;23;20159;-78
2022/12/03 11:36:14;;;;;;;34.47;15.13;;;9.80;85.80;;;;;;6215693;23;20230;-77
2022/12/03 11:38:50;;;;;;;38.33;17.15;;;9.80;85.90;;;;;;6212223;23;20387;-76
2022/12/03 11:41:27;;;;;;;33.80;16.37;;;9.80;86.30;;;;;;6214145;23;20186;-76
2022/12/03 11:44:30;;;;;;;37.67;16.13;;;9.80;86.60;;;;;;6215403;23;20159;-77
2022/12/03 11:47:13;;;;;;;33.17;15.57;;;9.70;86.30;;;;;;6213498;23;20604;-77
2022/12/03 11:49:48;;;;;;;34.07;14.63;;;9.70;86.20;;;;;;6213225;23;20163;-77
2022/12/03 11:52:24;;;;;;;28.83;14.90;;;9.70;86.20;;;;;;6214736;23;20479;-76
2022/12/03 11:54:59;;;;;;;34.83;14.30;;;9.70;86.20;;;;;;6214324;23;20166;-76
2022/12/03 11:57:34;;;;;;;32.57;15.73;;;9.60;86.20;;;;;;6215243;23;20159;-76
2022/12/03 12:00:18;;;;;;;35.10;15.63;;;9.60;86.90;;;;;;6214164;23;20226;-76
2022/12/03 12:02:47;;;;;;;32.87;16.63;;;9.60;86.60;;;;;;6212965;23;20156;-76
2022/12/03 12:05:22;;;;;;;34.23;14.87;;;9.60;86.60;;;;;;6214694;23;20172;-77
2022/12/03 12:07:53;;;;;;;34.67;14.97;;;9.60;86.60;;;;;;6214023;23;20155;-77
2022/12/03 12:10:45;;;;;;;37.87;14.63;;;9.60;86.70;;;;;;6214450;23;20168;-77
2022/12/03 12:13:47;;;;;;;33.40;12.50;;;9.60;86.70;;;;;;6211066;23;20601;-79
2022/12/03 12:16:38;;;;;;;31.13;13.40;;;9.60;86.80;;;;;;6214374;23;20159;-77
2022/12/03 12:19:28;;;;;;;38.33;14.10;;;9.60;86.70;;;;;;6211172;23;20597;-77
2022/12/03 12:22:12;;;;;;;33.30;14.20;;;9.60;86.80;;;;;;6214197;23;20237;-77
2022/12/03 12:24:47;;;;;;;36.37;15.30;;;9.60;86.80;;;;;;6214957;23;20264;-77
2022/12/03 12:27:18;;;;;;;28.87;13.33;;;9.60;86.80;;;;;;6214032;23;20166;-77
2022/12/03 12:29:52;;;;;;;36.70;14.50;;;9.60;86.80;;;;;;6214290;23;20156;-77
2022/12/03 12:32:25;;;;;;;35.80;14.33;;;9.60;86.70;;;;;;6214039;23;20597;-77
2022/12/03 12:34:57;;;;;;;33.00;14.23;;;9.60;86.70;;;;;;6214724;23;20159;-77
2022/12/03 12:37:32;;;;;;;35.00;14.10;;;9.60;86.60;;;;;;6214228;23;20217;-77
2022/12/03 12:40:02;;;;;;;39.73;14.67;;;9.60;86.50;;;;;;6214839;23;20163;-77
2022/12/03 12:42:35;;;;;;;32.37;14.17;;;9.60;86.60;;;;;;6214095;23;20164;-77
2022/12/03 12:45:14;;;;;;;26.43;12.80;;;9.70;86.60;;;;;;6213968;23;20522;-78
2022/12/03 12:47:48;;;;;;;30.47;12.23;;;9.70;86.60;;;;;;6214493;23;20159;-77
2022/12/03 12:50:18;;;;;;;26.67;12.00;;;9.70;86.60;;;;;;6213072;23;20155;-77
2022/12/03 12:52:53;;;;;;;27.60;11.30;;;9.70;86.60;;;;;;6214699;23;20188;-77
2022/12/03 12:55:23;;;;;;;30.40;12.67;;;9.70;86.50;;;;;;6212929;23;20159;-76
2022/12/03 12:57:55;;;;;;;28.93;13.10;;;9.70;87.10;;;;;;6213479;23;20160;-77
2022/12/03 13:00:24;;;;;;;28.83;12.67;;;9.70;86.30;;;;;;6212449;23;20679;-77
2022/12/03 13:02:56;;;;;;;33.97;13.80;;;9.70;86.20;;;;;;6213197;23;20221;-78
2022/12/03 13:05:42;;;;;;;29.23;12.97;;;9.70;86.30;;;;;;6163255;23;20547;-78
2022/12/03 13:08:23;;;;;;;28.07;12.40;;;9.70;86.20;;;;;;6214382;23;20214;-78
2022/12/03 13:10:53;;;;;;;29.10;13.17;;;9.60;86.20;;;;;;6214090;23;20155;-78
2022/12/03 13:13:26;;;;;;;37.03;14.07;;;9.60;86.30;;;;;;6213466;23;20217;-78
2022/12/03 13:16:00;;;;;;;30.97;13.00;;;9.70;86.30;;;;;;6213531;23;20209;-77
2022/12/03 13:18:38;;;;;;;31.23;13.37;;;9.70;86.40;;;;;;6212823;23;20469;-77
2022/12/03 13:21:25;;;;;;;32.33;13.77;;;9.70;86.30;;;;;;6213342;23;20175;-78